Time;durP1;ratioP1;P1;durP2;ratioP2;P2;SDS_P1;SDS_P2;PMS_P1;PMS_P2;Temp;Humidity;BMP_temperature;BMP_pressure;BME280_temperature;BME280_humidity;BME280_pressure;Samples;Min_cycle;Max_cycle;Signal;HPM_P1;HPM_P2
2023/06/17 00:00:58;;;;;;;;;;;18.60;56.50;;;;;;5096835;28;19932;-86
2023/06/17 00:03:24;;;;;;;;;;;18.60;56.50;;;;;;5069523;28;19930;-86
2023/06/17 00:05:49;;;;;;;;;;;18.50;57.10;;;;;;5071355;28;19908;-86
2023/06/17 00:08:15;;;;;;;;;;;18.50;57.30;;;;;;5088734;28;19920;-86
2023/06/17 00:10:40;;;;;;;;;;;18.30;57.70;;;;;;5072445;28;19919;-86
2023/06/17 00:13:08;;;;;;;;;;;18.30;57.80;;;;;;5092010;28;19908;-86
2023/06/17 00:15:33;;;;;;;;;;;18.30;57.30;;;;;;5080140;28;20250;-86
2023/06/17 00:18:00;;;;;;;;;;;18.40;57.20;;;;;;5073481;28;19908;-86
2023/06/17 00:20:25;;;;;;;;;;;18.30;57.30;;;;;;5069643;28;19965;-85
2023/06/17 00:22:52;;;;;;;;;;;18.40;56.90;;;;;;5074024;28;19908;-86
2023/06/17 00:25:18;;;;;;;;;;;18.40;57.20;;;;;;5071283;28;19912;-86
2023/06/17 00:27:44;;;;;;;;;;;18.40;57.10;;;;;;5073634;28;19916;-87
2023/06/17 00:30:09;;;;;;;;;;;18.40;57.20;;;;;;5093374;28;20305;-86
2023/06/17 00:32:35;;;;;;;;;;;18.40;57.40;;;;;;5075445;28;20012;-87
2023/06/17 00:35:02;;;;;;;;;;;18.30;57.70;;;;;;5072830;28;19908;-86
2023/06/17 00:37:27;;;;;;;;;;;18.20;57.90;;;;;;5077327;28;19912;-86
2023/06/17 00:39:53;;;;;;;;;;;18.10;57.60;;;;;;5092319;28;20049;-86
2023/06/17 00:42:19;;;;;;;;;;;18.10;58.00;;;;;;5090011;28;19912;-86
2023/06/17 00:44:44;;;;;;;;;;;18.00;58.70;;;;;;5092115;28;20362;-86
2023/06/17 00:47:10;;;;;;;;;;;17.80;58.80;;;;;;5073025;28;19920;-86
2023/06/17 00:49:37;;;;;;;;;;;17.80;59.50;;;;;;5080646;28;20038;-86
2023/06/17 00:52:04;;;;;;;;;;;17.90;59.00;;;;;;5089509;28;20270;-86
2023/06/17 00:54:31;;;;;;;;;;;17.80;59.10;;;;;;5071947;28;20278;-86
2023/06/17 00:56:57;;;;;;;;;;;17.70;59.30;;;;;;5090685;28;19916;-86
2023/06/17 00:59:23;;;;;;;;;;;17.80;59.40;;;;;;5073293;28;20279;-86
2023/06/17 01:01:48;;;;;;;;;;;17.70;59.90;;;;;;5089480;28;19912;-86
2023/06/17 01:04:15;;;;;;;;;;;17.60;60.20;;;;;;5090988;28;20464;-86
2023/06/17 01:06:44;;;;;;;;;;;17.60;60.60;;;;;;5087466;28;19920;-85
2023/06/17 01:09:11;;;;;;;;;;;17.50;60.90;;;;;;5089466;28;19915;-86
2023/06/17 01:11:38;;;;;;;;;;;17.40;61.40;;;;;;5075154;28;19919;-87
2023/06/17 01:14:05;;;;;;;;;;;17.30;62.20;;;;;;5073539;28;20289;-86
2023/06/17 01:16:32;;;;;;;;;;;17.30;61.20;;;;;;5078148;28;20297;-86
2023/06/17 01:18:58;;;;;;;;;;;17.30;61.40;;;;;;5072221;28;19999;-87
2023/06/17 01:21:28;;;;;;;;;;;17.20;61.80;;;;;;5071493;28;20004;-87
2023/06/17 01:23:58;;;;;;;;;;;17.30;61.40;;;;;;5085531;28;20369;-86
2023/06/17 01:26:24;;;;;;;;;;;17.20;61.70;;;;;;5089449;28;19915;-86
2023/06/17 01:28:49;;;;;;;;;;;17.20;61.80;;;;;;5073024;28;19924;-86
2023/06/17 01:31:18;;;;;;;;;;;17.10;61.70;;;;;;5105486;22;20271;-82
2023/06/17 01:33:45;;;;;;;;;;;17.10;61.80;;;;;;5110573;28;19931;-82
2023/06/17 01:36:22;;;;;;;;;;;17.20;61.90;;;;;;5108336;28;19920;-82
2023/06/17 01:38:49;;;;;;;;;;;17.10;62.30;;;;;;5115508;28;19911;-82
2023/06/17 01:41:22;;;;;;;;;;;16.90;63.10;;;;;;5109873;28;19924;-82
2023/06/17 01:43:48;;;;;;;;;;;17.00;62.60;;;;;;5092229;28;19912;-82
2023/06/17 01:46:14;;;;;;;;;;;17.10;62.60;;;;;;5114191;28;19918;-82
2023/06/17 01:48:40;;;;;;;;;;;17.10;62.80;;;;;;5095476;28;20010;-82
2023/06/17 01:51:06;;;;;;;;;;;17.10;62.70;;;;;;5113895;28;20000;-82
2023/06/17 01:53:32;;;;;;;;;;;17.10;62.90;;;;;;5111921;28;19912;-82
2023/06/17 01:55:57;;;;;;;;;;;17.10;62.70;;;;;;5114014;28;19912;-82
2023/06/17 01:58:23;;;;;;;;;;;17.10;62.60;;;;;;5094282;28;20018;-82
2023/06/17 02:00:48;;;;;;;;;;;17.10;62.70;;;;;;5090822;28;20012;-82
2023/06/17 02:03:15;;;;;;;;;;;17.10;62.80;;;;;;5084361;28;19961;-82
2023/06/17 02:05:41;;;;;;;;;;;17.10;62.80;;;;;;5093328;28;19971;-81
2023/06/17 02:08:07;;;;;;;;;;;16.80;63.20;;;;;;5086929;28;19998;-81
2023/06/17 02:10:33;;;;;;;;;;;16.90;63.40;;;;;;5107471;28;20375;-81
2023/06/17 02:13:01;;;;;;;;;;;16.90;63.20;;;;;;5095573;28;19957;-81
2023/06/17 02:15:26;;;;;;;;;;;17.00;63.00;;;;;;5092022;28;20018;-82
2023/06/17 02:17:51;;;;;;;;;;;17.00;63.10;;;;;;5114834;28;19986;-82
2023/06/17 02:20:17;;;;;;;;;;;16.90;63.50;;;;;;5093831;28;19912;-81
2023/06/17 02:22:42;;;;;;;;;;;16.80;64.30;;;;;;5112132;28;19911;-82
2023/06/17 02:25:08;;;;;;;;;;;16.80;63.60;;;;;;5092610;28;19919;-81
2023/06/17 02:27:33;;;;;;;;;;;16.70;64.10;;;;;;5096584;28;19915;-81
2023/06/17 02:30:00;;;;;;;;;;;16.60;64.30;;;;;;5095045;28;19994;-81
2023/06/17 02:32:27;;;;;;;;;;;16.60;64.20;;;;;;5120124;28;19943;-81
2023/06/17 02:34:53;;;;;;;;;;;16.70;64.20;;;;;;5100066;28;19919;-81
2023/06/17 02:37:18;;;;;;;;;;;16.70;64.10;;;;;;5118802;28;20172;-81
2023/06/17 02:39:44;;;;;;;;;;;16.80;64.40;;;;;;5119190;28;19912;-82
2023/06/17 02:42:11;;;;;;;;;;;16.80;64.00;;;;;;5101188;28;19920;-81
2023/06/17 02:44:37;;;;;;;;;;;17.00;62.90;;;;;;5100480;28;20260;-81
2023/06/17 02:47:02;;;;;;;;;;;16.90;62.60;;;;;;5119712;28;19920;-81
2023/06/17 02:49:28;;;;;;;;;;;16.80;63.50;;;;;;5098074;28;19919;-84
2023/06/17 02:51:53;;;;;;;;;;;16.80;64.00;;;;;;5098968;28;20449;-82
2023/06/17 02:54:19;;;;;;;;;;;16.60;64.60;;;;;;5095549;28;19924;-81
2023/06/17 02:56:44;;;;;;;;;;;16.60;64.30;;;;;;5117751;28;19912;-82
2023/06/17 02:59:12;;;;;;;;;;;16.60;64.40;;;;;;5092141;28;19962;-82
2023/06/17 03:01:42;;;;;;;;;;;16.60;64.40;;;;;;5097282;28;20270;-81
2023/06/17 03:04:08;;;;;;;;;;;16.50;64.50;;;;;;5096672;28;19907;-82
2023/06/17 03:06:36;;;;;;;;;;;16.50;64.60;;;;;;5109883;28;19979;-82
2023/06/17 03:09:03;;;;;;;;;;;16.40;64.80;;;;;;5124418;28;19912;-81
2023/06/17 03:11:29;;;;;;;;;;;16.40;65.20;;;;;;5100011;28;19907;-82
2023/06/17 03:13:55;;;;;;;;;;;16.50;65.30;;;;;;5097807;28;19912;-82
2023/06/17 03:16:20;;;;;;;;;;;16.40;65.40;;;;;;5097659;28;19919;-81
2023/06/17 03:18:47;;;;;;;;;;;16.30;65.80;;;;;;5115383;28;19908;-82
2023/06/17 03:21:12;;;;;;;;;;;16.40;65.50;;;;;;5089758;28;19912;-82
2023/06/17 03:23:40;;;;;;;;;;;16.20;66.60;;;;;;5115245;28;19923;-82
2023/06/17 03:26:06;;;;;;;;;;;16.20;66.30;;;;;;5095382;28;20309;-82
2023/06/17 03:28:31;;;;;;;;;;;16.20;66.00;;;;;;5117012;28;19912;-82
2023/06/17 03:30:57;;;;;;;;;;;16.20;66.00;;;;;;5095887;28;19916;-82
2023/06/17 03:33:22;;;;;;;;;;;16.20;66.40;;;;;;5114336;28;19916;-82
2023/06/17 03:35:48;;;;;;;;;;;16.20;66.70;;;;;;5111859;28;20413;-82
2023/06/17 03:38:13;;;;;;;;;;;16.10;67.20;;;;;;5114009;28;19971;-81
2023/06/17 03:40:39;;;;;;;;;;;16.10;67.20;;;;;;5094127;28;19923;-81
2023/06/17 03:43:05;;;;;;;;;;;16.10;67.40;;;;;;5096217;28;19912;-81
2023/06/17 03:45:30;;;;;;;;;;;16.10;67.10;;;;;;5094741;28;19911;-82
2023/06/17 03:47:57;;;;;;;;;;;16.20;67.10;;;;;;5096552;28;19912;-84
2023/06/17 03:50:22;;;;;;;;;;;16.20;67.10;;;;;;5094655;28;19916;-81
2023/06/17 03:52:48;;;;;;;;;;;16.20;66.90;;;;;;5096362;28;19919;-81
2023/06/17 03:55:13;;;;;;;;;;;16.30;66.90;;;;;;5092023;28;19912;-81
2023/06/17 03:57:40;;;;;;;;;;;16.30;66.90;;;;;;5093485;28;19916;-81
2023/06/17 04:00:06;;;;;;;;;;;16.10;67.10;;;;;;5111792;28;19916;-81
2023/06/17 04:02:31;;;;;;;;;;;16.00;67.40;;;;;;5111575;28;20007;-81
2023/06/17 04:05:00;;;;;;;;;;;16.00;68.40;;;;;;5092744;28;19951;-82
2023/06/17 04:07:27;;;;;;;;;;;16.00;68.50;;;;;;5099399;28;20270;-81
2023/06/17 04:09:52;;;;;;;;;;;16.00;68.30;;;;;;5116551;28;19954;-82
2023/06/17 04:12:18;;;;;;;;;;;16.10;68.70;;;;;;5100720;28;19908;-81
2023/06/17 04:14:44;;;;;;;;;;;16.10;68.60;;;;;;5098174;28;20354;-81
2023/06/17 04:17:09;;;;;;;;;;;16.20;68.40;;;;;;5099350;28;19918;-82
2023/06/17 04:19:37;;;;;;;;;;;16.20;68.30;;;;;;5098790;28;20022;-81
2023/06/17 04:22:03;;;;;;;;;;;16.20;68.20;;;;;;5114806;28;20364;-81
2023/06/17 04:24:29;;;;;;;;;;;16.40;67.40;;;;;;5092909;28;19911;-82
2023/06/17 04:26:54;;;;;;;;;;;16.50;66.90;;;;;;5097875;28;20011;-81
2023/06/17 04:29:20;;;;;;;;;;;16.70;66.30;;;;;;5093976;28;19916;-81
2023/06/17 04:31:46;;;;;;;;;;;16.60;66.90;;;;;;5110577;28;19922;-81
2023/06/17 04:34:21;;;;;;;;;;;16.60;67.80;;;;;;5111497;28;19912;-81
2023/06/17 04:36:49;;;;;;;;;;;16.60;68.30;;;;;;5101187;28;19970;-82
2023/06/17 04:39:15;;;;;;;;;;;16.50;68.00;;;;;;5099004;28;19912;-81
2023/06/17 04:41:44;;;;;;;;;;;16.50;68.50;;;;;;5094780;28;20341;-81
2023/06/17 04:44:09;;;;;;;;;;;16.60;68.60;;;;;;5115065;28;19912;-81
2023/06/17 04:46:35;;;;;;;;;;;16.70;68.80;;;;;;5095827;28;20308;-82
2023/06/17 04:49:00;;;;;;;;;;;16.90;68.90;;;;;;5095285;28;19926;-82
2023/06/17 04:51:26;;;;;;;;;;;16.90;68.70;;;;;;5093845;28;20296;-82
2023/06/17 04:53:51;;;;;;;;;;;16.90;68.90;;;;;;5095425;28;19911;-81
2023/06/17 04:56:19;;;;;;;;;;;17.00;67.30;;;;;;5090359;28;19938;-81
2023/06/17 04:58:45;;;;;;;;;;;17.10;64.70;;;;;;5112289;28;19920;-82
2023/06/17 05:01:11;;;;;;;;;;;17.30;63.40;;;;;;5123602;28;19919;-81
2023/06/17 05:03:36;;;;;;;;;;;17.40;63.30;;;;;;5100763;28;19915;-82
2023/06/17 05:06:02;;;;;;;;;;;17.30;64.30;;;;;;5113902;28;19919;-82
2023/06/17 05:08:27;;;;;;;;;;;17.30;65.10;;;;;;5097201;28;20326;-82
2023/06/17 05:10:53;;;;;;;;;;;17.50;65.20;;;;;;5095504;28;19943;-82
2023/06/17 05:13:18;;;;;;;;;;;17.60;66.40;;;;;;5091553;28;19973;-82
2023/06/17 05:15:44;;;;;;;;;;;17.70;67.10;;;;;;5095905;28;19943;-81
2023/06/17 05:18:09;;;;;;;;;;;17.70;66.50;;;;;;5095198;28;19922;-81
2023/06/17 05:20:35;;;;;;;;;;;17.80;65.80;;;;;;5095127;28;19957;-82
2023/06/17 05:23:00;;;;;;;;;;;17.90;65.30;;;;;;5096763;28;19912;-82
2023/06/17 05:25:26;;;;;;;;;;;17.90;64.60;;;;;;5092170;28;19947;-82
2023/06/17 05:27:51;;;;;;;;;;;17.90;64.10;;;;;;5114906;28;19911;-82
2023/06/17 05:30:17;;;;;;;;;;;18.00;63.10;;;;;;5110982;28;19921;-81
2023/06/17 05:32:42;;;;;;;;;;;18.10;61.90;;;;;;5112762;28;19923;-82
2023/06/17 05:35:08;;;;;;;;;;;18.10;61.30;;;;;;5111622;28;20288;-82
2023/06/17 05:37:33;;;;;;;;;;;18.10;61.80;;;;;;5095658;28;19930;-82
2023/06/17 05:39:59;;;;;;;;;;;18.30;61.00;;;;;;5100819;28;19920;-81
2023/06/17 05:42:24;;;;;;;;;;;18.50;59.90;;;;;;5127302;28;19960;-82
2023/06/17 05:44:50;;;;;;;;;;;18.50;59.40;;;;;;5132630;28;19915;-81
2023/06/17 05:47:15;;;;;;;;;;;18.70;58.90;;;;;;5102504;28;19915;-82
2023/06/17 05:49:41;;;;;;;;;;;18.80;58.90;;;;;;5121587;28;19912;-82
2023/06/17 05:52:06;;;;;;;;;;;19.20;57.40;;;;;;5099314;28;20003;-82
2023/06/17 05:54:31;;;;;;;;;;;19.20;56.80;;;;;;5101560;28;19919;-82
2023/06/17 05:56:57;;;;;;;;;;;19.10;57.10;;;;;;5107514;28;19931;-82
2023/06/17 05:59:24;;;;;;;;;;;19.10;57.60;;;;;;5103149;28;19908;-81
2023/06/17 06:01:49;;;;;;;;;;;19.00;57.80;;;;;;5132292;28;20142;-81
2023/06/17 06:04:15;;;;;;;;;;;19.00;57.80;;;;;;5121496;28;19916;-81
2023/06/17 06:06:40;;;;;;;;;;;19.00;57.90;;;;;;5098975;28;19911;-82
2023/06/17 06:09:06;;;;;;;;;;;19.00;58.10;;;;;;5096752;28;19968;-82
2023/06/17 06:11:31;;;;;;;;;;;19.00;58.30;;;;;;5098841;28;19919;-82
2023/06/17 06:13:57;;;;;;;;;;;19.10;58.50;;;;;;5117686;28;21159;-81
2023/06/17 06:16:22;;;;;;;;;;;19.00;58.80;;;;;;5098264;28;19916;-82
2023/06/17 06:18:47;;;;;;;;;;;19.10;58.60;;;;;;5116805;28;19915;-82
2023/06/17 06:21:13;;;;;;;;;;;19.10;59.00;;;;;;5097666;28;19964;-82
2023/06/17 06:23:38;;;;;;;;;;;19.20;59.00;;;;;;5117620;28;19998;-82
2023/06/17 06:26:04;;;;;;;;;;;19.20;58.80;;;;;;5114722;28;19919;-82
2023/06/17 06:28:29;;;;;;;;;;;19.20;57.20;;;;;;5099278;28;19923;-81
2023/06/17 06:30:55;;;;;;;;;;;19.30;56.70;;;;;;5096577;28;19960;-81
2023/06/17 06:33:22;;;;;;;;;;;19.50;55.90;;;;;;5117268;28;19956;-82
2023/06/17 06:35:47;;;;;;;;;;;19.50;55.10;;;;;;5113397;28;19966;-82
2023/06/17 06:38:13;;;;;;;;;;;19.50;54.40;;;;;;5096334;28;19916;-82
2023/06/17 06:40:40;;;;;;;;;;;19.50;55.30;;;;;;5114571;28;19912;-81
2023/06/17 06:43:05;;;;;;;;;;;19.60;55.90;;;;;;5115689;28;19916;-82
2023/06/17 06:45:31;;;;;;;;;;;19.60;56.20;;;;;;5113907;28;19912;-81
2023/06/17 06:47:56;;;;;;;;;;;19.90;56.10;;;;;;5095905;28;19915;-81
2023/06/17 06:50:22;;;;;;;;;;;19.70;56.30;;;;;;5112715;28;20302;-82
2023/06/17 06:52:47;;;;;;;;;;;19.80;56.40;;;;;;5115113;28;20007;-82
2023/06/17 06:55:13;;;;;;;;;;;19.80;56.70;;;;;;5094794;28;20270;-82
2023/06/17 06:57:38;;;;;;;;;;;20.00;55.70;;;;;;5115515;28;19912;-81
2023/06/17 07:00:08;;;;;;;;;;;20.00;55.90;;;;;;5096411;28;19916;-81
2023/06/17 07:02:34;;;;;;;;;;;20.00;56.20;;;;;;5114626;28;19914;-81
2023/06/17 07:05:00;;;;;;;;;;;20.10;54.80;;;;;;5113634;28;20018;-81
2023/06/17 07:07:25;;;;;;;;;;;20.10;54.40;;;;;;5096667;28;19954;-82
2023/06/17 07:09:51;;;;;;;;;;;20.20;54.00;;;;;;5097076;28;19911;-81
2023/06/17 07:12:17;;;;;;;;;;;20.20;53.40;;;;;;5095942;28;20014;-82
2023/06/17 07:14:42;;;;;;;;;;;20.30;53.50;;;;;;5100515;28;19971;-82
2023/06/17 07:17:08;;;;;;;;;;;20.30;52.80;;;;;;5107004;28;19915;-82
2023/06/17 07:19:33;;;;;;;;;;;20.40;51.10;;;;;;5114924;28;19908;-82
2023/06/17 07:21:59;;;;;;;;;;;20.50;50.70;;;;;;5097698;28;20696;-82
2023/06/17 07:24:24;;;;;;;;;;;20.50;51.10;;;;;;5100918;28;19912;-82
2023/06/17 07:26:50;;;;;;;;;;;20.60;50.70;;;;;;5102759;28;19912;-82
2023/06/17 07:29:15;;;;;;;;;;;20.60;50.80;;;;;;5133176;28;19916;-82
2023/06/17 07:31:41;;;;;;;;;;;20.70;51.50;;;;;;5127577;22;20069;-81
2023/06/17 07:34:06;;;;;;;;;;;20.90;50.10;;;;;;5101849;28;19917;-81
2023/06/17 07:36:32;;;;;;;;;;;21.00;49.50;;;;;;5101710;28;20371;-79
2023/06/17 07:38:57;;;;;;;;;;;21.10;49.60;;;;;;5084278;28;19919;-78
2023/06/17 07:41:23;;;;;;;;;;;21.10;48.70;;;;;;5100634;28;19923;-79
2023/06/17 07:43:48;;;;;;;;;;;21.20;48.20;;;;;;5077009;28;20003;-79
2023/06/17 07:46:14;;;;;;;;;;;21.30;48.60;;;;;;5065876;28;19966;-79
2023/06/17 07:48:39;;;;;;;;;;;21.30;46.90;;;;;;5073712;28;20478;-79
2023/06/17 07:51:05;;;;;;;;;;;21.30;46.90;;;;;;5050651;28;19912;-79
2023/06/17 07:53:31;;;;;;;;;;;21.30;47.00;;;;;;5045112;28;20364;-80
2023/06/17 07:55:56;;;;;;;;;;;21.30;47.60;;;;;;5048737;28;19976;-79
2023/06/17 07:58:22;;;;;;;;;;;21.50;46.70;;;;;;5067204;28;19917;-79
2023/06/17 08:00:47;;;;;;;;;;;21.50;47.40;;;;;;5068523;28;20356;-80
2023/06/17 08:03:13;;;;;;;;;;;21.70;45.00;;;;;;5075252;28;19962;-79
2023/06/17 08:05:39;;;;;;;;;;;21.60;44.40;;;;;;5056892;28;19985;-79
2023/06/17 08:08:04;;;;;;;;;;;21.60;44.50;;;;;;5075139;28;19909;-79
2023/06/17 08:10:30;;;;;;;;;;;21.60;45.10;;;;;;5057066;28;19948;-79
2023/06/17 08:12:55;;;;;;;;;;;21.60;44.20;;;;;;5081990;28;19912;-79
2023/06/17 08:15:22;;;;;;;;;;;21.60;44.60;;;;;;5064172;28;19912;-80
2023/06/17 08:17:48;;;;;;;;;;;21.70;43.70;;;;;;5068205;28;19949;-80
2023/06/17 08:20:15;;;;;;;;;;;21.80;43.50;;;;;;5058770;28;19916;-79
2023/06/17 08:22:41;;;;;;;;;;;21.90;43.50;;;;;;5075857;28;19970;-80
2023/06/17 08:25:07;;;;;;;;;;;22.10;43.50;;;;;;5088139;28;20330;-79
2023/06/17 08:27:32;;;;;;;;;;;22.00;44.30;;;;;;5085285;28;19912;-79
2023/06/17 08:29:58;;;;;;;;;;;22.00;44.90;;;;;;5055840;28;19913;-80
2023/06/17 08:32:24;;;;;;;;;;;22.20;43.20;;;;;;5073267;28;19916;-79
2023/06/17 08:34:49;;;;;;;;;;;22.30;42.40;;;;;;5072770;28;20437;-79
2023/06/17 08:37:15;;;;;;;;;;;22.30;42.80;;;;;;5060304;28;19955;-79
2023/06/17 08:39:42;;;;;;;;;;;22.20;43.30;;;;;;5078095;28;19912;-79
2023/06/17 08:42:08;;;;;;;;;;;22.20;45.30;;;;;;5080483;28;19913;-78
2023/06/17 08:44:36;;;;;;;;;;;22.40;43.30;;;;;;5059172;28;19946;-79
2023/06/17 08:47:05;;;;;;;;;;;22.40;42.60;;;;;;5083932;28;19908;-80
2023/06/17 08:49:30;;;;;;;;;;;22.50;41.80;;;;;;5050577;28;19931;-79
2023/06/17 08:51:58;;;;;;;;;;;22.60;42.10;;;;;;5080582;28;19940;-79
2023/06/17 08:54:24;;;;;;;;;;;22.50;41.90;;;;;;5057810;28;20058;-77
2023/06/17 08:56:49;;;;;;;;;;;22.60;42.30;;;;;;5056717;28;19967;-79
2023/06/17 08:59:15;;;;;;;;;;;22.80;41.30;;;;;;5037100;28;19955;-78
2023/06/17 09:01:42;;;;;;;;;;;22.80;39.50;;;;;;5048440;28;20347;-77
2023/06/17 09:04:07;;;;;;;;;;;22.70;39.90;;;;;;5038244;28;20284;-78
2023/06/17 09:06:33;;;;;;;;;;;23.00;39.60;;;;;;5061766;28;19913;-78
2023/06/17 09:08:58;;;;;;;;;;;23.00;38.60;;;;;;5042553;28;19912;-79
2023/06/17 09:11:25;;;;;;;;;;;23.10;38.20;;;;;;5048115;28;19924;-78
2023/06/17 09:13:51;;;;;;;;;;;23.10;38.10;;;;;;5062360;28;19913;-78
2023/06/17 09:16:18;;;;;;;;;;;23.10;39.20;;;;;;5047220;28;20050;-78
2023/06/17 09:18:43;;;;;;;;;;;23.30;38.20;;;;;;5063216;28;20355;-78
2023/06/17 09:21:14;;;;;;;;;;;23.10;39.10;;;;;;5075226;28;19912;-79
2023/06/17 09:23:39;;;;;;;;;;;23.20;37.90;;;;;;5069865;28;19987;-81
2023/06/17 09:26:05;;;;;;;;;;;23.10;37.90;;;;;;5052269;28;19928;-80
2023/06/17 09:28:30;;;;;;;;;;;23.20;38.00;;;;;;5074141;28;19920;-79
2023/06/17 09:30:57;;;;;;;;;;;23.30;38.60;;;;;;5077612;28;20329;-77
2023/06/17 09:33:24;;;;;;;;;;;23.20;38.40;;;;;;5051343;28;19999;-79
2023/06/17 09:35:58;;;;;;;;;;;23.30;36.90;;;;;;5056994;28;19923;-80
2023/06/17 09:38:24;;;;;;;;;;;23.60;36.60;;;;;;5040792;28;19924;-81
2023/06/17 09:40:50;;;;;;;;;;;23.60;34.20;;;;;;5054285;28;20295;-80
2023/06/17 09:43:16;;;;;;;;;;;23.60;34.40;;;;;;5082349;28;19986;-79
2023/06/17 09:45:44;;;;;;;;;;;23.60;35.30;;;;;;5075103;28;19912;-78
2023/06/17 09:48:10;;;;;;;;;;;23.70;34.30;;;;;;5059058;28;20139;-78
2023/06/17 09:50:37;;;;;;;;;;;23.80;33.70;;;;;;5073512;28;19912;-79
2023/06/17 09:53:05;;;;;;;;;;;23.80;34.80;;;;;;5060391;28;20058;-80
2023/06/17 09:55:31;;;;;;;;;;;23.80;34.70;;;;;;5071537;28;19931;-79
2023/06/17 09:57:58;;;;;;;;;;;24.00;34.50;;;;;;5073110;28;19966;-79
2023/06/17 10:00:24;;;;;;;;;;;23.80;33.50;;;;;;5077929;28;19917;-78
2023/06/17 10:02:56;;;;;;;;;;;23.90;34.20;;;;;;5080757;28;19947;-78
2023/06/17 10:05:23;;;;;;;;;;;23.90;34.90;;;;;;5049949;28;19919;-79
2023/06/17 10:07:51;;;;;;;;;;;24.10;34.00;;;;;;5077551;28;20007;-79
2023/06/17 10:10:17;;;;;;;;;;;24.10;32.40;;;;;;5065511;28;19908;-79
2023/06/17 10:12:44;;;;;;;;;;;24.20;32.40;;;;;;5052945;28;20360;-79
2023/06/17 10:15:11;;;;;;;;;;;24.10;33.40;;;;;;5076650;28;19920;-80
2023/06/17 10:17:38;;;;;;;;;;;24.20;32.80;;;;;;5073294;28;20011;-79
2023/06/17 10:20:05;;;;;;;;;;;24.30;32.00;;;;;;5055204;28;19913;-79
2023/06/17 10:22:33;;;;;;;;;;;24.40;32.80;;;;;;5050603;28;19944;-81
2023/06/17 10:24:59;;;;;;;;;;;24.30;33.60;;;;;;5071478;28;19913;-80
2023/06/17 10:27:24;;;;;;;;;;;24.10;33.80;;;;;;5083089;28;19909;-79
2023/06/17 10:29:50;;;;;;;;;;;24.20;30.90;;;;;;5073736;28;19921;-79
2023/06/17 10:32:18;;;;;;;;;;;24.40;32.60;;;;;;5074144;28;20348;-81
2023/06/17 10:35:03;;;;;;;;;;;24.50;31.50;;;;;;5051219;28;20453;-80
2023/06/17 10:37:28;;;;;;;;;;;24.60;31.50;;;;;;5069094;28;20010;-80
2023/06/17 10:39:54;;;;;;;;;;;24.70;31.00;;;;;;5053482;28;20388;-79
2023/06/17 10:42:24;;;;;;;;;;;24.90;29.80;;;;;;5050467;28;19912;-82
2023/06/17 10:44:50;;;;;;;;;;;24.70;31.60;;;;;;5053986;28;20486;-78
2023/06/17 10:47:22;;;;;;;;;;;24.70;32.50;;;;;;5059401;28;20037;-81
2023/06/17 10:49:48;;;;;;;;;;;24.80;32.80;;;;;;5069454;28;19912;-81
2023/06/17 10:52:15;;;;;;;;;;;24.80;32.40;;;;;;5051631;28;19912;-79
2023/06/17 10:54:51;;;;;;;;;;;24.80;31.60;;;;;;5055295;28;20329;-81
2023/06/17 10:57:27;;;;;;;;;;;24.90;30.80;;;;;;5064933;28;19929;-79
2023/06/17 10:59:53;;;;;;;;;;;25.00;30.90;;;;;;5082281;28;19917;-80
2023/06/17 11:02:20;;;;;;;;;;;24.90;30.90;;;;;;5045254;28;19913;-78
2023/06/17 11:04:46;;;;;;;;;;;25.00;30.70;;;;;;5058285;28;20015;-78
2023/06/17 11:07:13;;;;;;;;;;;24.80;32.30;;;;;;5069663;28;20019;-79
2023/06/17 11:09:38;;;;;;;;;;;24.80;32.10;;;;;;5063085;28;20760;-80
2023/06/17 11:12:04;;;;;;;;;;;24.90;32.90;;;;;;5049823;28;19920;-79
2023/06/17 11:14:30;;;;;;;;;;;25.00;32.50;;;;;;5066509;28;20340;-78
2023/06/17 11:16:56;;;;;;;;;;;25.00;31.80;;;;;;5066807;28;19917;-79
2023/06/17 11:19:24;;;;;;;;;;;24.90;33.00;;;;;;5055229;28;20399;-79
2023/06/17 11:21:54;;;;;;;;;;;25.10;32.60;;;;;;5059192;28;19958;-78
2023/06/17 11:24:20;;;;;;;;;;;25.30;32.70;;;;;;5055916;28;19934;-79
2023/06/17 11:26:46;;;;;;;;;;;25.30;32.90;;;;;;5046284;28;19913;-80
2023/06/17 11:29:11;;;;;;;;;;;25.50;31.60;;;;;;5040717;28;20300;-80
2023/06/17 11:31:38;;;;;;;;;;;25.50;32.30;;;;;;5047142;28;19916;-78
2023/06/17 11:34:06;;;;;;;;;;;25.50;31.80;;;;;;5045216;28;20376;-80
2023/06/17 11:36:31;;;;;;;;;;;25.50;30.80;;;;;;5040890;28;19928;-79
2023/06/17 11:38:57;;;;;;;;;;;25.60;30.50;;;;;;5056950;28;19970;-78
2023/06/17 11:41:22;;;;;;;;;;;25.50;31.00;;;;;;5046742;28;19916;-81
2023/06/17 11:43:48;;;;;;;;;;;25.60;31.20;;;;;;5046988;28;19917;-79
2023/06/17 11:46:20;;;;;;;;;;;25.60;30.50;;;;;;5060031;28;19956;-79
2023/06/17 11:48:47;;;;;;;;;;;25.50;29.70;;;;;;5046768;28;20299;-78
2023/06/17 11:51:16;;;;;;;;;;;25.50;31.20;;;;;;5060067;28;19913;-78
2023/06/17 11:53:45;;;;;;;;;;;25.60;31.20;;;;;;5058783;28;19912;-79
2023/06/17 11:56:12;;;;;;;;;;;25.70;30.50;;;;;;5056512;28;19916;-81
2023/06/17 11:58:42;;;;;;;;;;;25.80;30.70;;;;;;5074676;28;19913;-81
2023/06/17 12:01:20;;;;;;;;;;;25.80;30.30;;;;;;5108166;22;20058;-81
2023/06/17 12:03:48;;;;;;;;;;;26.00;29.60;;;;;;5067571;28;19929;-81
2023/06/17 12:06:18;;;;;;;;;;;25.90;30.00;;;;;;5052886;28;20045;-79
2023/06/17 12:08:43;;;;;;;;;;;26.00;29.80;;;;;;5056803;28;20360;-79
2023/06/17 12:11:23;;;;;;;;;;;25.80;30.50;;;;;;5065765;28;19919;-79
2023/06/17 12:13:50;;;;;;;;;;;25.90;30.80;;;;;;5045081;28;20375;-81
2023/06/17 12:16:27;;;;;;;;;;;26.00;30.20;;;;;;5055876;28;19970;-81
2023/06/17 12:18:53;;;;;;;;;;;26.00;30.70;;;;;;5065262;28;19970;-81
2023/06/17 12:21:23;;;;;;;;;;;26.10;29.00;;;;;;5065190;28;19913;-79
2023/06/17 12:23:50;;;;;;;;;;;26.00;28.40;;;;;;5029319;28;19920;-79
2023/06/17 12:26:17;;;;;;;;;;;25.80;29.50;;;;;;5032155;28;19928;-79
2023/06/17 12:28:43;;;;;;;;;;;25.80;30.20;;;;;;5045655;28;19913;-79
2023/06/17 12:31:09;;;;;;;;;;;25.80;31.20;;;;;;5047371;28;19943;-78
2023/06/17 12:33:34;;;;;;;;;;;25.90;30.60;;;;;;5041635;28;19917;-78
2023/06/17 12:36:00;;;;;;;;;;;26.00;29.50;;;;;;5042268;28;20272;-79
2023/06/17 12:38:28;;;;;;;;;;;25.90;29.90;;;;;;5036652;28;21971;-79
2023/06/17 12:40:53;;;;;;;;;;;26.00;29.80;;;;;;5028697;28;20005;-79
2023/06/17 12:43:19;;;;;;;;;;;26.00;29.60;;;;;;5043851;28;20560;-78
2023/06/17 12:45:44;;;;;;;;;;;26.00;30.00;;;;;;5045384;28;19919;-78
2023/06/17 12:48:11;;;;;;;;;;;26.00;30.20;;;;;;5053880;28;19916;-78
2023/06/17 12:50:36;;;;;;;;;;;26.10;29.90;;;;;;5065451;28;20356;-79
2023/06/17 12:53:02;;;;;;;;;;;26.10;29.20;;;;;;5068167;28;19916;-78
2023/06/17 12:55:27;;;;;;;;;;;26.20;29.20;;;;;;5059550;28;19952;-78
2023/06/17 12:57:52;;;;;;;;;;;26.30;29.70;;;;;;5050349;28;20396;-80
2023/06/17 13:00:18;;;;;;;;;;;26.20;29.30;;;;;;5041147;28;20441;-78
2023/06/17 13:02:44;;;;;;;;;;;26.20;29.30;;;;;;5033420;28;19921;-78
2023/06/17 13:05:10;;;;;;;;;;;26.10;29.60;;;;;;5053528;28;20400;-78
2023/06/17 13:07:35;;;;;;;;;;;26.10;29.70;;;;;;5045216;28;19913;-78
2023/06/17 13:10:04;;;;;;;;;;;26.20;29.50;;;;;;5049867;28;19913;-80
2023/06/17 13:12:29;;;;;;;;;;;26.30;29.60;;;;;;5049404;28;19913;-77
2023/06/17 13:14:55;;;;;;;;;;;26.40;29.70;;;;;;5041637;28;19919;-80
2023/06/17 13:17:21;;;;;;;;;;;26.40;29.10;;;;;;5046668;28;19923;-78
2023/06/17 13:19:46;;;;;;;;;;;26.40;29.00;;;;;;5073057;28;19932;-78
2023/06/17 13:22:12;;;;;;;;;;;26.40;29.10;;;;;;5065354;28;19979;-78
2023/06/17 13:24:37;;;;;;;;;;;26.50;28.40;;;;;;5042405;28;19927;-78
2023/06/17 13:27:03;;;;;;;;;;;26.50;29.80;;;;;;5039951;28;20048;-79
2023/06/17 13:29:29;;;;;;;;;;;26.40;30.00;;;;;;5034107;28;19920;-78
2023/06/17 13:31:55;;;;;;;;;;;26.60;29.00;;;;;;5031046;28;20491;-78
2023/06/17 13:34:21;;;;;;;;;;;26.60;29.30;;;;;;5050785;28;19912;-77
2023/06/17 13:36:46;;;;;;;;;;;26.60;28.00;;;;;;5045403;28;20073;-77
2023/06/17 13:39:13;;;;;;;;;;;26.50;28.20;;;;;;5038601;28;19949;-78
2023/06/17 13:41:39;;;;;;;;;;;26.40;29.40;;;;;;5062088;28;19927;-78
2023/06/17 13:44:05;;;;;;;;;;;26.30;30.40;;;;;;5055965;28;19920;-78
2023/06/17 13:46:31;;;;;;;;;;;26.60;28.70;;;;;;5042954;28;19924;-78
2023/06/17 13:48:56;;;;;;;;;;;26.50;29.00;;;;;;5062055;28;19917;-78
2023/06/17 13:51:22;;;;;;;;;;;26.40;28.80;;;;;;5044997;28;20042;-79
2023/06/17 13:53:48;;;;;;;;;;;26.40;29.00;;;;;;5035112;28;19920;-80
2023/06/17 13:56:13;;;;;;;;;;;26.50;29.50;;;;;;5048929;28;20538;-79
2023/06/17 13:58:39;;;;;;;;;;;26.60;29.60;;;;;;5019147;28;20015;-78
2023/06/17 14:01:04;;;;;;;;;;;26.60;29.90;;;;;;5023249;28;19956;-78
2023/06/17 14:03:30;;;;;;;;;;;26.70;30.20;;;;;;5027759;28;20107;-77
2023/06/17 14:05:55;;;;;;;;;;;27.00;28.80;;;;;;5030799;28;19920;-79
2023/06/17 14:08:21;;;;;;;;;;;27.10;28.80;;;;;;5027913;28;19917;-78
2023/06/17 14:10:46;;;;;;;;;;;27.10;28.60;;;;;;5030617;28;19921;-79